sensor_id;sensor_type;location;lat;lon;timestamp;temperature;humidity
6863;DHT22;3470;48.738;9.616;2022-08-11T17:00:31;27.50;43.30
6863;DHT22;3470;48.738;9.616;2022-08-11T17:03:00;27.30;44.30
6863;DHT22;3470;48.738;9.616;2022-08-11T17:05:52;27.20;44.10
6863;DHT22;3470;48.738;9.616;2022-08-11T17:08:49;27.10;44.00
6863;DHT22;3470;48.738;9.616;2022-08-11T17:11:39;27.00;44.30
6863;DHT22;3470;48.738;9.616;2022-08-11T17:14:31;26.90;44.80
6863;DHT22;3470;48.738;9.616;2022-08-11T17:17:00;26.80;45.10
6863;DHT22;3470;48.738;9.616;2022-08-11T17:19:31;26.70;44.50
6863;DHT22;3470;48.738;9.616;2022-08-11T17:21:58;26.60;45.30
6863;DHT22;3470;48.738;9.616;2022-08-11T17:24:45;26.60;45.20
6863;DHT22;3470;48.738;9.616;2022-08-11T17:27:14;26.50;46.10
6863;DHT22;3470;48.738;9.616;2022-08-11T17:29:48;26.40;45.60
6863;DHT22;3470;48.738;9.616;2022-08-11T17:32:18;26.30;45.60
6863;DHT22;3470;48.738;9.616;2022-08-11T17:35:17;26.30;45.80
6863;DHT22;3470;48.738;9.616;2022-08-11T17:38:14;26.20;46.20
6863;DHT22;3470;48.738;9.616;2022-08-11T17:40:43;26.10;46.80
6863;DHT22;3470;48.738;9.616;2022-08-11T17:43:30;26.00;46.90
6863;DHT22;3470;48.738;9.616;2022-08-11T17:46:15;25.90;47.40
6863;DHT22;3470;48.738;9.616;2022-08-11T17:49:02;25.70;47.80
6863;DHT22;3470;48.738;9.616;2022-08-11T17:51:28;25.60;47.70
6863;DHT22;3470;48.738;9.616;2022-08-11T17:54:14;25.50;47.60
6863;DHT22;3470;48.738;9.616;2022-08-11T17:56:59;25.50;47.50
6863;DHT22;3470;48.738;9.616;2022-08-11T17:59:44;25.40;47.90
6863;DHT22;3470;48.738;9.616;2022-08-11T18:02:36;25.20;48.00
6863;DHT22;3470;48.738;9.616;2022-08-11T18:05:24;25.20;47.80
6863;DHT22;3470;48.738;9.616;2022-08-11T18:07:54;25.10;47.80
6863;DHT22;3470;48.738;9.616;2022-08-11T18:10:40;25.10;47.90
6863;DHT22;3470;48.738;9.616;2022-08-11T18:13:26;24.90;48.10
6863;DHT22;3470;48.738;9.616;2022-08-11T18:16:11;24.80;48.40
6863;DHT22;3470;48.738;9.616;2022-08-11T18:18:56;24.70;48.50
6863;DHT22;3470;48.738;9.616;2022-08-11T18:21:42;24.50;49.10
6863;DHT22;3470;48.738;9.616;2022-08-11T18:24:29;24.40;49.50
6863;DHT22;3470;48.738;9.616;2022-08-11T18:27:15;24.20;50.00
6863;DHT22;3470;48.738;9.616;2022-08-11T18:30:02;24.10;50.00
6863;DHT22;3470;48.738;9.616;2022-08-11T18:32:47;24.00;50.60
6863;DHT22;3470;48.738;9.616;2022-08-11T18:35:34;23.90;50.30
6863;DHT22;3470;48.738;9.616;2022-08-11T18:38:21;23.80;51.10
6863;DHT22;3470;48.738;9.616;2022-08-11T18:41:07;23.70;51.00
6863;DHT22;3470;48.738;9.616;2022-08-11T18:43:55;23.50;50.90
6863;DHT22;3470;48.738;9.616;2022-08-11T18:46:42;23.40;51.40
6863;DHT22;3470;48.738;9.616;2022-08-11T18:49:33;23.20;51.50
6863;DHT22;3470;48.738;9.616;2022-08-11T18:52:19;23.00;52.10
6863;DHT22;3470;48.738;9.616;2022-08-11T18:55:08;22.80;52.40
6863;DHT22;3470;48.738;9.616;2022-08-11T18:57:54;22.60;53.20
6863;DHT22;3470;48.738;9.616;2022-08-11T19:00:41;22.40;53.10
6863;DHT22;3470;48.738;9.616;2022-08-11T19:03:27;22.30;53.50
6863;DHT22;3470;48.738;9.616;2022-08-11T19:06:14;22.20;53.90
6863;DHT22;3470;48.738;9.616;2022-08-11T19:09:03;22.10;54.30
6863;DHT22;3470;48.738;9.616;2022-08-11T19:11:48;22.00;54.80
6863;DHT22;3470;48.738;9.616;2022-08-11T19:14:34;21.90;55.00
6863;DHT22;3470;48.738;9.616;2022-08-11T19:17:19;21.80;55.50
6863;DHT22;3470;48.738;9.616;2022-08-11T19:20:07;21.80;55.20
6863;DHT22;3470;48.738;9.616;2022-08-11T19:22:54;21.70;55.60
6863;DHT22;3470;48.738;9.616;2022-08-11T19:25:39;21.60;55.40
6863;DHT22;3470;48.738;9.616;2022-08-11T19:28:24;21.50;56.00
6863;DHT22;3470;48.738;9.616;2022-08-11T19:31:09;21.40;56.60
6863;DHT22;3470;48.738;9.616;2022-08-11T19:33:55;21.30;56.80
6863;DHT22;3470;48.738;9.616;2022-08-11T19:36:41;21.20;56.70
6863;DHT22;3470;48.738;9.616;2022-08-11T19:39:26;21.10;56.70
6863;DHT22;3470;48.738;9.616;2022-08-11T19:42:12;21.10;56.40
6863;DHT22;3470;48.738;9.616;2022-08-11T19:44:59;21.10;56.10
6863;DHT22;3470;48.738;9.616;2022-08-11T19:47:44;21.10;56.00
6863;DHT22;3470;48.738;9.616;2022-08-11T19:50:31;21.20;56.20
6863;DHT22;3470;48.738;9.616;2022-08-11T19:53:17;21.10;56.20
6863;DHT22;3470;48.738;9.616;2022-08-11T19:56:03;21.00;56.50
6863;DHT22;3470;48.738;9.616;2022-08-11T19:58:49;21.00;56.40
6863;DHT22;3470;48.738;9.616;2022-08-11T20:01:33;20.90;56.60
6863;DHT22;3470;48.738;9.616;2022-08-11T20:04:18;20.90;56.80
6863;DHT22;3470;48.738;9.616;2022-08-11T20:07:03;20.80;57.00
6863;DHT22;3470;48.738;9.616;2022-08-11T20:09:49;20.60;57.30
6863;DHT22;3470;48.738;9.616;2022-08-11T20:12:35;20.50;57.50
6863;DHT22;3470;48.738;9.616;2022-08-11T20:15:21;20.40;58.10
6863;DHT22;3470;48.738;9.616;2022-08-11T20:18:09;20.30;58.50
6863;DHT22;3470;48.738;9.616;2022-08-11T20:20:57;20.20;58.60
6863;DHT22;3470;48.738;9.616;2022-08-11T20:23:43;20.00;58.90
6863;DHT22;3470;48.738;9.616;2022-08-11T20:26:30;19.90;59.50
6863;DHT22;3470;48.738;9.616;2022-08-11T20:29:16;19.80;59.50
6863;DHT22;3470;48.738;9.616;2022-08-11T20:32:01;19.70;59.80
6863;DHT22;3470;48.738;9.616;2022-08-11T20:34:45;19.60;59.70
6863;DHT22;3470;48.738;9.616;2022-08-11T20:37:31;19.60;59.90
6863;DHT22;3470;48.738;9.616;2022-08-11T20:40:24;19.70;59.30
6863;DHT22;3470;48.738;9.616;2022-08-11T20:43:13;19.70;58.90
6863;DHT22;3470;48.738;9.616;2022-08-11T20:46:00;19.80;59.20
6863;DHT22;3470;48.738;9.616;2022-08-11T20:48:45;19.90;58.30
6863;DHT22;3470;48.738;9.616;2022-08-11T20:51:30;19.90;59.50
6863;DHT22;3470;48.738;9.616;2022-08-11T20:54:16;19.80;58.80
6863;DHT22;3470;48.738;9.616;2022-08-11T20:57:00;19.80;59.30
6863;DHT22;3470;48.738;9.616;2022-08-11T20:59:46;19.90;58.50
6863;DHT22;3470;48.738;9.616;2022-08-11T21:02:31;19.90;58.50
6863;DHT22;3470;48.738;9.616;2022-08-11T21:05:16;19.90;59.10
6863;DHT22;3470;48.738;9.616;2022-08-11T21:08:01;19.80;58.70
6863;DHT22;3470;48.738;9.616;2022-08-11T21:10:47;19.80;59.10
6863;DHT22;3470;48.738;9.616;2022-08-11T21:13:38;19.80;59.10
6863;DHT22;3470;48.738;9.616;2022-08-11T21:16:33;19.70;58.90
6863;DHT22;3470;48.738;9.616;2022-08-11T21:19:23;19.70;58.90
6863;DHT22;3470;48.738;9.616;2022-08-11T21:22:11;19.70;59.00
6863;DHT22;3470;48.738;9.616;2022-08-11T21:24:57;19.60;59.00
6863;DHT22;3470;48.738;9.616;2022-08-11T21:27:43;19.60;59.20
6863;DHT22;3470;48.738;9.616;2022-08-11T21:30:29;19.60;59.30
6863;DHT22;3470;48.738;9.616;2022-08-11T21:33:13;19.50;59.50
6863;DHT22;3470;48.738;9.616;2022-08-11T21:35:58;19.40;60.30
6863;DHT22;3470;48.738;9.616;2022-08-11T21:38:45;19.30;60.20
6863;DHT22;3470;48.738;9.616;2022-08-11T21:41:31;19.10;60.60
6863;DHT22;3470;48.738;9.616;2022-08-11T21:44:17;19.00;60.80
6863;DHT22;3470;48.738;9.616;2022-08-11T21:47:02;18.80;60.80
6863;DHT22;3470;48.738;9.616;2022-08-11T21:49:47;18.70;61.50
6863;DHT22;3470;48.738;9.616;2022-08-11T21:52:33;18.70;61.20
6863;DHT22;3470;48.738;9.616;2022-08-11T21:55:19;18.60;62.50
6863;DHT22;3470;48.738;9.616;2022-08-11T21:58:04;18.50;62.50
6863;DHT22;3470;48.738;9.616;2022-08-11T22:00:48;18.30;63.70
6863;DHT22;3470;48.738;9.616;2022-08-11T22:03:33;18.30;63.10
6863;DHT22;3470;48.738;9.616;2022-08-11T22:06:17;18.20;63.50
6863;DHT22;3470;48.738;9.616;2022-08-11T22:09:03;18.20;63.60
6863;DHT22;3470;48.738;9.616;2022-08-11T22:11:47;18.20;63.50
6863;DHT22;3470;48.738;9.616;2022-08-11T22:14:32;18.50;63.30
6863;DHT22;3470;48.738;9.616;2022-08-11T22:17:16;18.80;62.40
6863;DHT22;3470;48.738;9.616;2022-08-11T22:20:00;19.00;62.10
6863;DHT22;3470;48.738;9.616;2022-08-11T22:22:46;19.00;62.40
6863;DHT22;3470;48.738;9.616;2022-08-11T22:25:31;18.80;64.10
